createdAt,value
2016-10-30T00:00:26.100Z,1018.03
2016-10-30T00:00:47.839Z,1018.03
2016-10-30T00:01:09.552Z,1017.92
2016-10-30T00:01:36.051Z,1018.06
2016-10-30T00:02:00.783Z,1018.10
2016-10-30T00:02:22.574Z,1018.02
2016-10-30T00:02:44.301Z,1017.92
2016-10-30T00:03:06.029Z,1017.95
2016-10-30T00:03:27.759Z,1017.97
2016-10-30T00:03:49.499Z,1017.98
2016-10-30T00:04:11.229Z,1018.04
2016-10-30T00:04:32.948Z,1017.84
2016-10-30T00:04:54.665Z,1017.83
2016-10-30T00:05:16.398Z,1017.89
2016-10-30T00:05:38.113Z,1017.85
2016-10-30T00:05:59.836Z,1017.84
2016-10-30T00:06:21.559Z,1017.99
2016-10-30T00:06:43.380Z,1017.97
2016-10-30T00:07:05.106Z,1017.97
2016-10-30T00:07:26.857Z,1017.85
2016-10-30T00:07:48.570Z,1017.76
2016-10-30T00:08:15.064Z,1018.12
2016-10-30T00:08:36.783Z,1017.97
2016-10-30T00:08:58.520Z,1017.99
2016-10-30T00:09:20.232Z,1017.97
2016-10-30T00:09:41.967Z,1017.95
2016-10-30T00:10:03.683Z,1017.97
2016-10-30T00:10:25.401Z,1018.00
2016-10-30T00:10:47.120Z,1017.87
2016-10-30T00:11:08.859Z,1017.94
2016-10-30T00:11:30.578Z,1017.75
2016-10-30T00:11:52.310Z,1017.96
2016-10-30T00:12:14.035Z,1018.07
2016-10-30T00:12:35.779Z,1017.96
2016-10-30T00:12:57.504Z,1017.92
2016-10-30T00:13:19.231Z,1018.02
2016-10-30T00:13:40.946Z,1018.01
2016-10-30T00:14:02.664Z,1017.97
2016-10-30T00:14:24.388Z,1017.90
2016-10-30T00:14:46.111Z,1017.91
2016-10-30T00:15:07.843Z,1017.93
2016-10-30T00:15:29.579Z,1017.92
2016-10-30T00:15:51.317Z,1017.84
2016-10-30T00:16:13.045Z,1017.65
2016-10-30T00:16:34.764Z,1017.76
2016-10-30T00:16:56.516Z,1017.90
2016-10-30T00:17:18.242Z,1017.97
2016-10-30T00:17:39.972Z,1017.94
2016-10-30T00:18:04.511Z,1017.84
2016-10-30T00:18:26.242Z,1017.89
2016-10-30T00:18:47.962Z,1017.87
2016-10-30T00:19:09.683Z,1017.84
2016-10-30T00:19:31.401Z,1017.87
2016-10-30T00:19:53.120Z,1017.80
2016-10-30T00:20:14.855Z,1017.72
2016-10-30T00:20:36.573Z,1017.71
2016-10-30T00:20:58.310Z,1017.70
2016-10-30T00:21:20.028Z,1017.68
2016-10-30T00:21:41.764Z,1017.63
2016-10-30T00:22:03.495Z,1017.59
2016-10-30T00:22:25.216Z,1017.70
2016-10-30T00:22:46.941Z,1017.74
2016-10-30T00:23:08.701Z,1017.87
2016-10-30T00:23:30.421Z,1017.67
2016-10-30T00:23:52.191Z,1017.76
2016-10-30T00:24:13.910Z,1017.58
2016-10-30T00:24:35.631Z,1017.71
2016-10-30T00:24:57.354Z,1017.68
2016-10-30T00:25:19.086Z,1017.65
2016-10-30T00:25:40.810Z,1017.73
2016-10-30T00:26:02.534Z,1017.67
2016-10-30T00:26:24.257Z,1017.84
2016-10-30T00:26:45.983Z,1017.85
2016-10-30T00:27:07.708Z,1017.82
2016-10-30T00:27:32.227Z,1017.80
2016-10-30T00:27:53.971Z,1017.66
2016-10-30T00:28:15.697Z,1017.69
2016-10-30T00:28:37.417Z,1017.83
2016-10-30T00:28:59.156Z,1017.87
2016-10-30T00:29:23.425Z,1017.86
2016-10-30T00:29:45.158Z,1017.86
2016-10-30T00:30:06.881Z,1017.83
2016-10-30T00:30:28.600Z,1017.85
2016-10-30T00:30:50.321Z,1017.85
2016-10-30T00:31:12.078Z,1017.64
2016-10-30T00:31:33.783Z,1017.78
2016-10-30T00:31:55.507Z,1017.72
2016-10-30T00:32:17.234Z,1017.66
2016-10-30T00:32:38.953Z,1017.57
2016-10-30T00:33:00.677Z,1017.77
2016-10-30T00:33:22.407Z,1017.75
2016-10-30T00:33:44.138Z,1017.76
2016-10-30T00:34:05.864Z,1017.69
2016-10-30T00:34:27.584Z,1017.77
2016-10-30T00:34:49.302Z,1017.79
2016-10-30T00:35:11.021Z,1017.82
2016-10-30T00:35:32.750Z,1017.80
2016-10-30T00:35:54.464Z,1017.83
2016-10-30T00:36:16.193Z,1017.68
2016-10-30T00:36:37.913Z,1017.79
2016-10-30T00:36:59.633Z,1017.82
2016-10-30T00:37:21.360Z,1017.77
2016-10-30T00:37:43.089Z,1017.67
2016-10-30T00:38:04.816Z,1017.73
2016-10-30T00:38:26.536Z,1017.83
2016-10-30T00:38:48.266Z,1017.73
2016-10-30T00:39:10.006Z,1017.66
2016-10-30T00:39:31.729Z,1017.92
2016-10-30T00:39:53.454Z,1017.88
2016-10-30T00:40:15.173Z,1017.84
2016-10-30T00:40:36.916Z,1017.79
2016-10-30T00:40:58.640Z,1017.64
2016-10-30T00:41:20.372Z,1017.88
2016-10-30T00:41:42.091Z,1017.95
2016-10-30T00:42:03.807Z,1018.04
2016-10-30T00:42:25.528Z,1017.79
2016-10-30T00:42:47.265Z,1017.80
2016-10-30T00:43:08.980Z,1017.78
2016-10-30T00:43:30.727Z,1017.69
2016-10-30T00:43:52.454Z,1017.87
2016-10-30T00:44:16.193Z,1017.89
2016-10-30T00:44:37.913Z,1017.82
2016-10-30T00:44:59.635Z,1017.75
2016-10-30T00:45:21.354Z,1017.66
2016-10-30T00:45:43.072Z,1017.99
2016-10-30T00:46:04.802Z,1017.99
2016-10-30T00:46:26.530Z,1017.88
2016-10-30T00:46:48.252Z,1017.87
2016-10-30T00:47:10.029Z,1017.74
2016-10-30T00:47:31.741Z,1017.61
2016-10-30T00:47:53.472Z,1017.74
2016-10-30T00:48:15.188Z,1017.67
2016-10-30T00:48:36.911Z,1017.78
2016-10-30T00:48:58.629Z,1018.02
2016-10-30T00:49:21.363Z,1017.99
2016-10-30T00:49:43.099Z,1017.87
2016-10-30T00:50:05.818Z,1017.72
2016-10-30T00:50:27.549Z,1017.77
2016-10-30T00:50:49.268Z,1017.73
2016-10-30T00:51:10.995Z,1017.58
2016-10-30T00:51:32.724Z,1017.85
2016-10-30T00:51:54.455Z,1017.92
2016-10-30T00:52:16.179Z,1017.86
2016-10-30T00:52:37.930Z,1017.73
2016-10-30T00:52:59.633Z,1017.79
2016-10-30T00:53:21.362Z,1017.75
2016-10-30T00:53:43.092Z,1017.86
2016-10-30T00:54:04.810Z,1017.77
2016-10-30T00:54:26.539Z,1017.67
2016-10-30T00:54:48.270Z,1017.75
2016-10-30T00:55:09.992Z,1017.84
2016-10-30T00:55:31.731Z,1017.92
2016-10-30T00:55:53.448Z,1017.83
2016-10-30T00:56:15.181Z,1017.79
2016-10-30T00:56:36.912Z,1017.64
2016-10-30T00:56:58.627Z,1017.50
2016-10-30T00:57:20.362Z,1017.70
2016-10-30T00:57:42.088Z,1017.61
2016-10-30T00:58:03.811Z,1017.79
2016-10-30T00:58:25.528Z,1017.90
2016-10-30T00:58:47.250Z,1017.99
2016-10-30T00:59:09.057Z,1017.84
2016-10-30T00:59:30.855Z,1017.69
2016-10-30T00:59:52.578Z,1017.67
2016-10-30T01:00:14.313Z,1017.86
2016-10-30T01:00:40.929Z,1017.84
2016-10-30T01:01:02.656Z,1017.80
2016-10-30T01:01:24.381Z,1017.69
2016-10-30T01:01:46.106Z,1017.79
2016-10-30T01:02:07.831Z,1017.82
2016-10-30T01:02:29.552Z,1017.74
2016-10-30T01:02:51.275Z,1017.67
2016-10-30T01:03:13.033Z,1017.70
2016-10-30T01:03:34.725Z,1017.62
2016-10-30T01:03:56.448Z,1017.63
2016-10-30T01:04:18.183Z,1017.55
2016-10-30T01:04:39.908Z,1017.71
2016-10-30T01:05:01.632Z,1017.72
2016-10-30T01:05:23.373Z,1017.70
2016-10-30T01:05:45.108Z,1017.72
2016-10-30T01:06:06.889Z,1017.76
2016-10-30T01:06:28.621Z,1017.77
2016-10-30T01:06:50.342Z,1017.78
2016-10-30T01:07:12.061Z,1017.51
2016-10-30T01:07:33.785Z,1017.55
2016-10-30T01:07:55.501Z,1017.70
2016-10-30T01:08:17.234Z,1017.81
2016-10-30T01:08:38.976Z,1017.69
2016-10-30T01:09:00.710Z,1017.66
2016-10-30T01:09:22.433Z,1017.77
2016-10-30T01:09:44.155Z,1017.75
2016-10-30T01:10:05.882Z,1017.67
2016-10-30T01:10:27.617Z,1017.67
2016-10-30T01:10:49.342Z,1017.70
2016-10-30T01:11:11.070Z,1017.65
2016-10-30T01:11:32.795Z,1017.67
2016-10-30T01:11:54.529Z,1017.69
2016-10-30T01:12:16.262Z,1017.70
2016-10-30T01:12:37.981Z,1017.67
2016-10-30T01:12:59.704Z,1017.64
2016-10-30T01:13:21.424Z,1017.60
2016-10-30T01:13:43.145Z,1017.66
2016-10-30T01:14:04.866Z,1017.66
2016-10-30T01:14:26.585Z,1017.71
2016-10-30T01:14:48.303Z,1017.54
2016-10-30T01:15:10.048Z,1017.57
2016-10-30T01:15:31.767Z,1017.67
2016-10-30T01:15:53.487Z,1017.69
2016-10-30T01:16:15.207Z,1017.71
2016-10-30T01:16:36.994Z,1017.65
2016-10-30T01:16:58.710Z,1017.62
2016-10-30T01:17:20.428Z,1017.72
2016-10-30T01:17:42.151Z,1017.61
2016-10-30T01:18:03.869Z,1017.70
2016-10-30T01:18:25.589Z,1017.68
2016-10-30T01:18:47.309Z,1017.74
2016-10-30T01:19:09.041Z,1017.71
2016-10-30T01:19:30.767Z,1017.72
2016-10-30T01:19:52.486Z,1017.67
2016-10-30T01:20:14.216Z,1017.67
2016-10-30T01:20:35.950Z,1017.48
2016-10-30T01:20:57.698Z,1017.63
2016-10-30T01:21:19.421Z,1017.52
2016-10-30T01:21:41.154Z,1017.47
2016-10-30T01:22:02.874Z,1017.76
2016-10-30T01:22:24.603Z,1017.71
2016-10-30T01:22:46.333Z,1017.71
2016-10-30T01:23:08.055Z,1017.65
2016-10-30T01:23:29.780Z,1017.61
2016-10-30T01:23:51.505Z,1017.65
2016-10-30T01:24:13.220Z,1017.68
2016-10-30T01:24:34.957Z,1017.64
2016-10-30T01:24:56.664Z,1017.73
2016-10-30T01:25:18.403Z,1017.63
2016-10-30T01:25:40.217Z,1017.62
2016-10-30T01:26:01.935Z,1017.68
2016-10-30T01:26:23.654Z,1017.64
2016-10-30T01:26:45.382Z,1017.57
2016-10-30T01:27:07.110Z,1017.61
2016-10-30T01:27:28.833Z,1017.64
2016-10-30T01:27:50.550Z,1017.65
2016-10-30T01:28:13.282Z,1017.63
2016-10-30T01:28:35.008Z,1017.62
2016-10-30T01:28:56.726Z,1017.55
2016-10-30T01:29:18.447Z,1017.45
2016-10-30T01:29:40.172Z,1017.64
2016-10-30T01:30:01.921Z,1017.62
2016-10-30T01:30:23.652Z,1017.52
2016-10-30T01:30:45.384Z,1017.67
2016-10-30T01:31:07.106Z,1017.59
2016-10-30T01:31:28.831Z,1017.33
2016-10-30T01:31:50.566Z,1017.30
2016-10-30T01:32:12.311Z,1017.58
2016-10-30T01:32:34.035Z,1017.49
2016-10-30T01:32:55.757Z,1017.58
2016-10-30T01:33:17.485Z,1017.62
2016-10-30T01:33:39.205Z,1017.66
2016-10-30T01:34:00.925Z,1017.69
2016-10-30T01:34:22.669Z,1017.52
2016-10-30T01:34:44.399Z,1017.53
2016-10-30T01:35:06.108Z,1017.54
2016-10-30T01:35:27.831Z,1017.40
2016-10-30T01:35:49.599Z,1017.47
2016-10-30T01:36:11.340Z,1017.57
2016-10-30T01:36:33.055Z,1017.58
2016-10-30T01:36:54.787Z,1017.43
2016-10-30T01:37:16.518Z,1017.40
2016-10-30T01:37:38.257Z,1017.45
2016-10-30T01:37:59.971Z,1017.50
2016-10-30T01:38:21.693Z,1017.55
2016-10-30T01:38:43.422Z,1017.57
2016-10-30T01:39:05.153Z,1017.52
2016-10-30T01:39:26.874Z,1017.52
2016-10-30T01:39:48.594Z,1017.48
2016-10-30T01:40:10.314Z,1017.37
2016-10-30T01:40:32.041Z,1017.28
2016-10-30T01:40:53.759Z,1017.42
2016-10-30T01:41:15.480Z,1017.32
2016-10-30T01:41:37.222Z,1017.45
2016-10-30T01:41:58.950Z,1017.43
2016-10-30T01:42:20.674Z,1017.57
2016-10-30T01:42:42.410Z,1017.63
2016-10-30T01:43:04.135Z,1017.44
2016-10-30T01:43:25.888Z,1017.43
2016-10-30T01:43:47.612Z,1017.50
2016-10-30T01:44:09.337Z,1017.42
2016-10-30T01:44:31.068Z,1017.32
2016-10-30T01:44:52.783Z,1017.48
2016-10-30T01:45:14.518Z,1017.38
2016-10-30T01:45:36.246Z,1017.41
2016-10-30T01:46:00.482Z,1017.40
2016-10-30T01:46:22.212Z,1017.40
2016-10-30T01:46:43.933Z,1017.29
2016-10-30T01:47:05.659Z,1017.48
2016-10-30T01:47:27.381Z,1017.52
2016-10-30T01:47:49.098Z,1017.44
2016-10-30T01:48:10.814Z,1017.47
2016-10-30T01:48:32.554Z,1017.48
2016-10-30T01:48:54.276Z,1017.48
2016-10-30T01:49:16.018Z,1017.39
2016-10-30T01:49:37.733Z,1017.24
2016-10-30T01:49:59.463Z,1017.55
2016-10-30T01:50:21.184Z,1017.60
2016-10-30T01:50:42.906Z,1017.51
2016-10-30T01:51:04.629Z,1017.44
2016-10-30T01:51:26.355Z,1017.41
2016-10-30T01:51:48.082Z,1017.36
2016-10-30T01:52:09.799Z,1017.45
2016-10-30T01:52:31.525Z,1017.31
2016-10-30T01:52:53.249Z,1017.36
2016-10-30T01:53:14.998Z,1017.34
2016-10-30T01:53:36.695Z,1017.18
2016-10-30T01:53:58.430Z,1017.38
2016-10-30T01:54:20.195Z,1017.39
2016-10-30T01:54:41.943Z,1017.35
2016-10-30T01:55:03.668Z,1017.44
2016-10-30T01:55:25.389Z,1017.41
2016-10-30T01:55:47.109Z,1017.35
2016-10-30T01:56:08.829Z,1017.40
2016-10-30T01:56:30.553Z,1017.43
2016-10-30T01:56:52.274Z,1017.34
2016-10-30T01:57:13.998Z,1017.34
2016-10-30T01:57:35.728Z,1017.36
2016-10-30T01:57:57.460Z,1017.33
2016-10-30T01:58:19.183Z,1017.35
2016-10-30T01:58:40.930Z,1017.30
2016-10-30T01:59:02.655Z,1017.31
2016-10-30T01:59:24.381Z,1017.27
2016-10-30T01:59:46.100Z,1017.42
2016-10-30T02:00:07.826Z,1017.35
2016-10-30T02:00:29.543Z,1017.28
2016-10-30T02:00:51.272Z,1017.08
2016-10-30T02:01:39.482Z,1017.41
2016-10-30T02:02:01.238Z,1017.46
2016-10-30T02:02:22.973Z,1017.48
2016-10-30T02:02:44.691Z,1017.42
2016-10-30T02:03:06.417Z,1017.42
2016-10-30T02:03:28.150Z,1017.43
2016-10-30T02:03:49.872Z,1017.46
2016-10-30T02:04:11.602Z,1017.45
2016-10-30T02:04:33.329Z,1017.40
2016-10-30T02:04:55.071Z,1017.42
2016-10-30T02:05:16.794Z,1017.22
2016-10-30T02:05:38.518Z,1017.36
2016-10-30T02:06:00.245Z,1017.38
2016-10-30T02:06:21.969Z,1017.37
2016-10-30T02:06:43.726Z,1017.22
2016-10-30T02:07:05.446Z,1017.37
2016-10-30T02:07:27.178Z,1017.32
2016-10-30T02:07:48.917Z,1017.25
2016-10-30T02:08:10.634Z,1017.33
2016-10-30T02:08:32.351Z,1017.30
2016-10-30T02:08:54.079Z,1017.34
2016-10-30T02:09:15.798Z,1017.30
2016-10-30T02:09:37.531Z,1017.35
2016-10-30T02:09:59.252Z,1017.33
2016-10-30T02:10:20.967Z,1017.25
2016-10-30T02:10:42.692Z,1017.27
2016-10-30T02:11:04.410Z,1017.26
2016-10-30T02:11:26.134Z,1017.30
2016-10-30T02:11:47.860Z,1017.27
2016-10-30T02:12:09.583Z,1017.22
2016-10-30T02:12:31.306Z,1017.27
2016-10-30T02:12:53.034Z,1017.29
2016-10-30T02:13:14.741Z,1017.26
2016-10-30T02:13:36.474Z,1017.24
2016-10-30T02:13:58.196Z,1017.22
2016-10-30T02:14:19.959Z,1017.21
2016-10-30T02:14:41.684Z,1017.18
2016-10-30T02:15:03.410Z,1017.12
2016-10-30T02:15:25.134Z,1016.98
2016-10-30T02:15:46.877Z,1016.96
2016-10-30T02:16:13.365Z,1017.19
2016-10-30T02:16:35.090Z,1017.29
2016-10-30T02:16:57.050Z,1017.35
2016-10-30T02:17:18.641Z,1017.37
2016-10-30T02:17:40.370Z,1017.13
2016-10-30T02:18:02.096Z,1017.10
2016-10-30T02:18:50.311Z,1017.25
2016-10-30T02:19:12.042Z,1017.05
2016-10-30T02:19:33.761Z,1017.36
2016-10-30T02:19:55.499Z,1017.23
2016-10-30T02:20:17.217Z,1017.19
2016-10-30T02:20:38.942Z,1017.11
2016-10-30T02:21:00.674Z,1017.14
2016-10-30T02:21:23.402Z,1017.31
2016-10-30T02:21:45.128Z,1017.30
2016-10-30T02:22:06.856Z,1017.28
2016-10-30T02:22:28.600Z,1017.24
2016-10-30T02:22:50.329Z,1017.30
2016-10-30T02:23:12.047Z,1017.36
2016-10-30T02:23:33.776Z,1017.22
2016-10-30T02:23:55.504Z,1017.22
2016-10-30T02:24:17.234Z,1017.24
2016-10-30T02:24:38.961Z,1017.27
2016-10-30T02:25:00.684Z,1017.30
2016-10-30T02:25:22.404Z,1017.35
2016-10-30T02:25:44.126Z,1017.36
2016-10-30T02:26:05.846Z,1017.29
2016-10-30T02:26:27.585Z,1017.17
2016-10-30T02:26:50.299Z,1017.22
2016-10-30T02:27:12.029Z,1017.23
2016-10-30T02:27:33.757Z,1017.22
2016-10-30T02:27:58.293Z,1017.23
2016-10-30T02:28:20.023Z,1017.18
2016-10-30T02:28:41.742Z,1017.09
2016-10-30T02:29:03.474Z,1017.14
2016-10-30T02:29:25.191Z,1017.19
2016-10-30T02:29:46.913Z,1017.24
2016-10-30T02:30:08.634Z,1017.21
2016-10-30T02:30:30.367Z,1017.21
2016-10-30T02:30:52.095Z,1017.16
2016-10-30T02:31:13.831Z,1017.19
2016-10-30T02:31:35.547Z,1017.22
2016-10-30T02:31:57.266Z,1017.23
2016-10-30T02:32:18.988Z,1017.24
2016-10-30T02:32:40.714Z,1017.29
2016-10-30T02:33:02.442Z,1017.26
2016-10-30T02:33:24.165Z,1017.22
2016-10-30T02:33:45.889Z,1017.12
2016-10-30T02:34:07.619Z,1017.17
2016-10-30T02:34:29.345Z,1017.18
2016-10-30T02:34:51.079Z,1017.17
2016-10-30T02:35:12.800Z,1017.22
2016-10-30T02:35:34.520Z,1017.13
2016-10-30T02:35:56.240Z,1017.13
2016-10-30T02:36:17.985Z,1017.15
2016-10-30T02:36:39.705Z,1017.01
2016-10-30T02:37:01.424Z,1017.13
2016-10-30T02:37:23.145Z,1017.12
2016-10-30T02:37:44.863Z,1017.07
2016-10-30T02:38:06.611Z,1017.07
2016-10-30T02:38:28.321Z,1017.09
2016-10-30T02:38:50.046Z,1017.16
2016-10-30T02:39:11.766Z,1017.21
2016-10-30T02:39:33.488Z,1017.20
2016-10-30T02:39:55.212Z,1017.17
2016-10-30T02:40:16.929Z,1017.16
2016-10-30T02:40:38.649Z,1017.12
2016-10-30T02:41:00.380Z,1017.11
2016-10-30T02:41:22.107Z,1017.09
2016-10-30T02:41:43.820Z,1017.09
2016-10-30T02:42:05.545Z,1017.08
2016-10-30T02:42:27.285Z,1017.13
2016-10-30T02:42:49.030Z,1017.18
2016-10-30T02:43:10.754Z,1017.15
2016-10-30T02:43:32.470Z,1017.08
2016-10-30T02:43:54.192Z,1017.03
2016-10-30T02:44:15.909Z,1016.96
2016-10-30T02:44:37.631Z,1016.82
2016-10-30T02:44:59.351Z,1016.83
2016-10-30T02:45:21.085Z,1017.12
2016-10-30T02:45:42.803Z,1017.14
2016-10-30T02:46:04.523Z,1017.08
2016-10-30T02:46:26.245Z,1017.10
2016-10-30T02:46:47.985Z,1016.98
2016-10-30T02:47:09.697Z,1017.08
2016-10-30T02:47:31.417Z,1017.08
2016-10-30T02:48:19.622Z,1017.13
2016-10-30T02:48:41.398Z,1017.08
2016-10-30T02:49:03.130Z,1016.94
2016-10-30T02:49:24.852Z,1016.98
2016-10-30T02:49:46.582Z,1017.02
2016-10-30T02:50:08.303Z,1016.94
2016-10-30T02:50:30.027Z,1016.92
2016-10-30T02:50:51.758Z,1017.02
2016-10-30T02:51:13.478Z,1017.00
2016-10-30T02:51:35.254Z,1016.99
2016-10-30T02:51:56.983Z,1017.03
2016-10-30T02:52:18.705Z,1017.00
2016-10-30T02:52:40.429Z,1017.08
2016-10-30T02:53:02.148Z,1016.96
2016-10-30T02:53:23.880Z,1016.93
2016-10-30T02:53:48.114Z,1016.91
2016-10-30T02:54:09.846Z,1016.95
2016-10-30T02:54:31.563Z,1017.05
2016-10-30T02:54:58.060Z,1017.04
2016-10-30T02:55:19.783Z,1017.03
2016-10-30T02:55:41.509Z,1016.98
2016-10-30T02:56:03.229Z,1016.99
2016-10-30T02:56:24.965Z,1016.95
2016-10-30T02:56:46.685Z,1016.99
2016-10-30T02:57:08.420Z,1016.99
2016-10-30T02:57:30.142Z,1016.89
2016-10-30T02:57:51.861Z,1017.00
2016-10-30T02:58:13.583Z,1017.05
2016-10-30T02:58:35.310Z,1016.95
2016-10-30T02:58:57.030Z,1016.88
2016-10-30T02:59:18.747Z,1017.00
2016-10-30T02:59:40.467Z,1017.10
2016-10-30T03:00:02.223Z,1017.05
2016-10-30T03:00:23.938Z,1017.08
2016-10-30T03:00:45.662Z,1017.14
2016-10-30T03:01:07.383Z,1017.18
2016-10-30T03:01:29.114Z,1017.15
2016-10-30T03:01:50.834Z,1017.01
2016-10-30T03:02:12.559Z,1017.13
2016-10-30T03:02:34.303Z,1017.23
2016-10-30T03:02:56.026Z,1017.17
2016-10-30T03:03:17.745Z,1016.96
2016-10-30T03:03:39.463Z,1017.08
2016-10-30T03:04:01.183Z,1016.98
2016-10-30T03:04:22.904Z,1017.22
2016-10-30T03:04:44.635Z,1017.02
2016-10-30T03:05:06.354Z,1017.11
2016-10-30T03:05:28.076Z,1017.09
2016-10-30T03:05:49.808Z,1016.93
2016-10-30T03:06:11.527Z,1017.03
2016-10-30T03:06:33.250Z,1017.17
2016-10-30T03:06:54.979Z,1017.17
2016-10-30T03:07:16.701Z,1017.16
2016-10-30T03:07:38.431Z,1017.19
2016-10-30T03:08:00.148Z,1017.27
2016-10-30T03:08:21.868Z,1017.19
2016-10-30T03:08:43.592Z,1017.17
2016-10-30T03:09:05.335Z,1017.26
2016-10-30T03:09:27.065Z,1017.17
2016-10-30T03:09:48.785Z,1017.16
2016-10-30T03:10:10.507Z,1017.14
2016-10-30T03:10:32.228Z,1017.13
2016-10-30T03:10:53.959Z,1017.12
2016-10-30T03:11:15.679Z,1017.07
2016-10-30T03:11:37.410Z,1017.17
2016-10-30T03:11:59.167Z,1017.07
2016-10-30T03:12:23.833Z,1017.14
2016-10-30T03:12:45.561Z,1017.25
2016-10-30T03:13:07.287Z,1017.17
2016-10-30T03:13:29.007Z,1017.17
2016-10-30T03:13:50.737Z,1017.15
2016-10-30T03:14:12.469Z,1017.23
2016-10-30T03:14:34.195Z,1017.22
2016-10-30T03:14:55.922Z,1017.15
2016-10-30T03:15:17.635Z,1017.16
2016-10-30T03:15:39.354Z,1017.18
2016-10-30T03:16:01.075Z,1017.14
2016-10-30T03:16:22.790Z,1017.19
2016-10-30T03:16:44.512Z,1017.17
2016-10-30T03:17:06.232Z,1017.16
2016-10-30T03:17:27.950Z,1017.19
2016-10-30T03:17:49.669Z,1017.20
2016-10-30T03:18:11.387Z,1017.20
2016-10-30T03:18:33.104Z,1017.15
2016-10-30T03:18:54.825Z,1017.12
2016-10-30T03:19:16.547Z,1017.11
2016-10-30T03:19:38.293Z,1016.97
2016-10-30T03:20:00.025Z,1016.90
2016-10-30T03:20:21.743Z,1017.02
2016-10-30T03:20:43.469Z,1016.97
2016-10-30T03:21:05.190Z,1017.02
2016-10-30T03:21:26.913Z,1016.96
2016-10-30T03:21:48.641Z,1016.97
2016-10-30T03:22:10.421Z,1016.99
2016-10-30T03:22:32.151Z,1017.09
2016-10-30T03:22:54.074Z,1017.05
2016-10-30T03:23:15.808Z,1017.30
2016-10-30T03:23:37.527Z,1017.39
2016-10-30T03:23:59.245Z,1017.26
2016-10-30T03:24:20.991Z,1017.11
2016-10-30T03:24:42.723Z,1017.13
2016-10-30T03:25:04.445Z,1017.07
2016-10-30T03:25:26.161Z,1016.92
2016-10-30T03:25:47.887Z,1017.09
2016-10-30T03:26:09.616Z,1017.14
2016-10-30T03:26:31.447Z,1017.06
2016-10-30T03:26:53.192Z,1017.04
2016-10-30T03:27:14.911Z,1017.10
2016-10-30T03:27:36.629Z,1017.13
2016-10-30T03:27:58.351Z,1017.07
2016-10-30T03:28:20.071Z,1017.07
2016-10-30T03:28:41.817Z,1016.97
2016-10-30T03:29:03.543Z,1017.14
2016-10-30T03:29:26.266Z,1017.18
2016-10-30T03:29:47.988Z,1017.10
2016-10-30T03:30:09.716Z,1017.09
2016-10-30T03:30:31.439Z,1016.99
2016-10-30T03:30:53.169Z,1016.94
2016-10-30T03:31:14.894Z,1016.90
2016-10-30T03:31:36.615Z,1016.89
2016-10-30T03:31:58.331Z,1016.93
2016-10-30T03:32:20.053Z,1016.88
2016-10-30T03:32:41.782Z,1016.86
2016-10-30T03:33:03.501Z,1017.03
2016-10-30T03:33:26.221Z,1017.13
2016-10-30T03:33:47.955Z,1017.01
2016-10-30T03:34:09.672Z,1017.04
2016-10-30T03:34:31.400Z,1017.08
2016-10-30T03:34:53.118Z,1017.05
2016-10-30T03:35:14.837Z,1017.00
2016-10-30T03:35:36.561Z,1016.97
2016-10-30T03:35:58.282Z,1016.84
2016-10-30T03:36:20.005Z,1016.80
2016-10-30T03:36:41.722Z,1016.60
2016-10-30T03:37:04.445Z,1016.60
2016-10-30T03:37:26.167Z,1016.76
2016-10-30T03:37:47.891Z,1016.94
2016-10-30T03:38:09.629Z,1017.02
2016-10-30T03:38:31.347Z,1016.96
2016-10-30T03:39:19.556Z,1016.77
2016-10-30T03:39:41.275Z,1016.80
2016-10-30T03:40:02.994Z,1016.72
2016-10-30T03:40:24.718Z,1016.86
2016-10-30T03:40:46.449Z,1017.00
2016-10-30T03:41:08.173Z,1016.98
2016-10-30T03:41:29.897Z,1016.86
2016-10-30T03:41:51.629Z,1016.98
2016-10-30T03:42:13.348Z,1016.93
2016-10-30T03:42:35.081Z,1017.04
2016-10-30T03:42:56.812Z,1017.06
2016-10-30T03:43:18.528Z,1017.01
2016-10-30T03:43:40.248Z,1016.93
2016-10-30T03:44:06.740Z,1016.94
2016-10-30T03:44:28.470Z,1017.01
2016-10-30T03:44:50.189Z,1016.96
2016-10-30T03:45:11.905Z,1016.89
2016-10-30T03:45:33.631Z,1016.83
2016-10-30T03:45:55.362Z,1016.66
2016-10-30T03:46:17.082Z,1016.70
2016-10-30T03:46:38.807Z,1016.82
2016-10-30T03:47:00.529Z,1016.75
2016-10-30T03:47:22.261Z,1016.97
2016-10-30T03:47:43.969Z,1016.93
2016-10-30T03:48:05.696Z,1016.90
2016-10-30T03:48:27.419Z,1016.78
2016-10-30T03:48:53.908Z,1016.86
2016-10-30T03:49:15.653Z,1016.79
2016-10-30T03:49:37.373Z,1016.92
2016-10-30T03:49:59.100Z,1016.91
2016-10-30T03:50:20.820Z,1016.95
2016-10-30T03:50:42.537Z,1017.00
2016-10-30T03:51:04.256Z,1017.07
2016-10-30T03:51:25.979Z,1017.16
2016-10-30T03:51:47.704Z,1017.05
2016-10-30T03:52:09.454Z,1017.01
2016-10-30T03:52:31.171Z,1017.15
2016-10-30T03:52:52.894Z,1017.06
2016-10-30T03:53:14.616Z,1017.15
2016-10-30T03:53:36.341Z,1017.14
2016-10-30T03:54:00.826Z,1017.11
2016-10-30T03:54:22.554Z,1017.09
2016-10-30T03:54:44.277Z,1017.25
2016-10-30T03:55:06.002Z,1017.14
2016-10-30T03:55:27.718Z,1017.13
2016-10-30T03:55:49.438Z,1017.09
2016-10-30T03:56:11.160Z,1017.06
2016-10-30T03:56:32.875Z,1017.12
2016-10-30T03:56:54.596Z,1017.18
2016-10-30T03:57:16.319Z,1016.98
2016-10-30T03:57:38.066Z,1016.77
2016-10-30T03:57:59.786Z,1017.09
2016-10-30T03:58:21.524Z,1016.96
2016-10-30T03:58:43.267Z,1017.13
2016-10-30T03:59:04.996Z,1017.08
2016-10-30T03:59:26.719Z,1017.23
2016-10-30T03:59:48.436Z,1017.08
2016-10-30T04:00:10.155Z,1017.22
2016-10-30T04:00:31.881Z,1017.24
2016-10-30T04:00:53.643Z,1017.23
2016-10-30T04:01:15.535Z,1017.20
2016-10-30T04:01:37.266Z,1017.22
2016-10-30T04:01:58.982Z,1017.18
2016-10-30T04:02:20.705Z,1017.18
2016-10-30T04:02:42.426Z,1017.23
2016-10-30T04:03:04.148Z,1017.18
2016-10-30T04:03:25.881Z,1017.17
2016-10-30T04:03:47.612Z,1017.10
2016-10-30T04:04:09.338Z,1017.10
2016-10-30T04:04:35.833Z,1017.12
2016-10-30T04:04:57.551Z,1016.99
2016-10-30T04:05:19.282Z,1017.30
2016-10-30T04:05:40.996Z,1017.27
2016-10-30T04:06:02.714Z,1017.30
2016-10-30T04:06:24.442Z,1017.30
2016-10-30T04:06:50.944Z,1017.31
2016-10-30T04:07:12.678Z,1017.29
2016-10-30T04:07:34.394Z,1017.21
2016-10-30T04:07:56.117Z,1017.28
2016-10-30T04:08:17.845Z,1017.22
2016-10-30T04:08:39.569Z,1017.21
2016-10-30T04:09:01.288Z,1017.16
2016-10-30T04:09:23.009Z,1017.12
2016-10-30T04:09:44.736Z,1017.14
2016-10-30T04:10:07.450Z,1017.27
2016-10-30T04:10:29.172Z,1017.32
2016-10-30T04:10:50.889Z,1017.31
2016-10-30T04:11:12.615Z,1017.29
2016-10-30T04:11:34.343Z,1017.34
2016-10-30T04:11:58.282Z,1017.28
2016-10-30T04:12:20.011Z,1017.31
2016-10-30T04:12:41.731Z,1017.39
2016-10-30T04:13:03.449Z,1017.34
2016-10-30T04:13:25.171Z,1017.35
2016-10-30T04:13:46.918Z,1017.30
2016-10-30T04:14:08.649Z,1017.29
2016-10-30T04:14:30.372Z,1017.26
2016-10-30T04:14:52.097Z,1017.23
2016-10-30T04:15:13.818Z,1017.12
2016-10-30T04:15:35.537Z,1017.17
2016-10-30T04:15:57.270Z,1017.12
2016-10-30T04:16:19.021Z,1017.14
2016-10-30T04:16:40.737Z,1017.31
2016-10-30T04:17:02.465Z,1017.28
2016-10-30T04:17:24.190Z,1017.27
2016-10-30T04:17:45.913Z,1017.19
2016-10-30T04:18:07.633Z,1017.32
2016-10-30T04:18:29.359Z,1017.29
2016-10-30T04:18:51.086Z,1017.41
2016-10-30T04:19:12.805Z,1017.30
2016-10-30T04:19:34.545Z,1017.30
2016-10-30T04:19:56.256Z,1017.24
2016-10-30T04:20:17.986Z,1017.22
2016-10-30T04:20:39.737Z,1017.30
2016-10-30T04:21:01.453Z,1017.28
2016-10-30T04:21:23.181Z,1017.30
2016-10-30T04:21:44.898Z,1017.23
2016-10-30T04:22:06.623Z,1017.24
2016-10-30T04:22:28.344Z,1017.24
2016-10-30T04:22:50.096Z,1017.05
2016-10-30T04:23:11.812Z,1017.06
2016-10-30T04:23:33.537Z,1017.21
2016-10-30T04:23:55.262Z,1017.21
2016-10-30T04:24:16.983Z,1017.16
2016-10-30T04:24:38.716Z,1017.19
2016-10-30T04:25:00.453Z,1017.23
2016-10-30T04:25:22.170Z,1017.21
2016-10-30T04:25:43.891Z,1017.17
2016-10-30T04:26:05.610Z,1017.15